createdAt,value
2019-03-18T00:00:14.673Z,14.10
2019-03-18T00:01:14.663Z,11.70
2019-03-18T00:02:14.659Z,11.40
2019-03-18T00:03:14.643Z,14.20
2019-03-18T00:04:14.660Z,13.30
2019-03-18T00:05:14.625Z,12.90
2019-03-18T00:06:14.612Z,11.90
2019-03-18T00:07:14.599Z,14.50
2019-03-18T00:08:14.591Z,13.70
2019-03-18T00:09:14.605Z,16.30
2019-03-18T00:10:14.569Z,12.60
2019-03-18T00:11:14.573Z,14.00
2019-03-18T00:12:14.546Z,15.70
2019-03-18T00:13:14.534Z,16.00
2019-03-18T00:14:14.551Z,14.50
2019-03-18T00:15:14.514Z,15.50
2019-03-18T00:16:14.517Z,11.80
2019-03-18T00:17:14.500Z,14.00
2019-03-18T00:18:14.486Z,13.40
2019-03-18T00:19:14.518Z,15.20
2019-03-18T00:20:14.479Z,15.70
2019-03-18T00:21:14.453Z,13.90
2019-03-18T00:22:14.446Z,13.00
2019-03-18T00:23:14.437Z,12.70
2019-03-18T00:24:14.423Z,13.00
2019-03-18T00:25:14.441Z,14.60
2019-03-18T00:26:14.403Z,13.70
2019-03-18T00:27:14.391Z,15.00
2019-03-18T00:28:14.380Z,12.90
2019-03-18T00:29:14.368Z,12.00
2019-03-18T00:30:14.384Z,12.90
2019-03-18T00:31:14.355Z,14.80
2019-03-18T00:32:14.338Z,12.20
2019-03-18T00:33:14.331Z,11.50
2019-03-18T00:34:14.316Z,11.20
2019-03-18T00:35:14.337Z,12.40
2019-03-18T00:36:14.296Z,12.30
2019-03-18T00:37:14.285Z,12.30
2019-03-18T00:38:14.271Z,12.00
2019-03-18T00:39:14.285Z,14.90
2019-03-18T00:40:14.281Z,14.40
2019-03-18T00:41:14.246Z,14.80
2019-03-18T00:42:14.233Z,17.10
2019-03-18T00:43:14.223Z,13.90
2019-03-18T00:44:14.216Z,13.40
2019-03-18T00:45:15.592Z,13.30
2019-03-18T00:46:14.192Z,14.20
2019-03-18T00:47:14.180Z,13.50
2019-03-18T00:48:14.167Z,14.60
2019-03-18T00:49:14.160Z,13.10
2019-03-18T00:50:14.177Z,12.80
2019-03-18T00:51:14.141Z,17.70
2019-03-18T00:52:14.131Z,12.90
2019-03-18T00:53:14.113Z,16.00
2019-03-18T00:54:14.126Z,12.70
2019-03-18T00:55:14.179Z,13.60
2019-03-18T00:56:14.086Z,15.40
2019-03-18T00:57:14.076Z,14.90
2019-03-18T00:58:14.069Z,16.10
2019-03-18T00:59:14.058Z,14.10
2019-03-18T01:00:14.073Z,13.80
2019-03-18T01:01:14.038Z,15.40
2019-03-18T01:02:14.029Z,15.10
2019-03-18T01:03:14.021Z,16.50
2019-03-18T01:04:14.024Z,17.40
2019-03-18T01:05:14.027Z,14.60
2019-03-18T01:06:13.977Z,12.70
2019-03-18T01:07:14.038Z,16.40
2019-03-18T01:08:13.963Z,14.10
2019-03-18T01:09:13.950Z,15.20
2019-03-18T01:10:13.975Z,15.00
2019-03-18T01:11:13.958Z,16.30
2019-03-18T01:12:13.918Z,20.30
2019-03-18T01:13:13.922Z,13.80
2019-03-18T01:14:13.896Z,18.10
2019-03-18T01:15:26.910Z,16.00
2019-03-18T01:16:14.871Z,14.40
2019-03-18T01:17:13.869Z,15.60
2019-03-18T01:18:13.855Z,13.20
2019-03-18T01:19:13.844Z,14.20
2019-03-18T01:20:13.866Z,16.80
2019-03-18T01:21:13.823Z,13.10
2019-03-18T01:22:13.824Z,12.90
2019-03-18T01:23:13.806Z,13.20
2019-03-18T01:24:13.796Z,16.30
2019-03-18T01:25:13.891Z,13.60
2019-03-18T01:26:13.770Z,13.50
2019-03-18T01:27:13.764Z,13.30
2019-03-18T01:28:13.756Z,13.40
2019-03-18T01:29:13.742Z,12.40
2019-03-18T01:30:13.757Z,14.50
2019-03-18T01:31:13.715Z,12.30
2019-03-18T01:32:13.706Z,11.40
2019-03-18T01:33:13.694Z,16.60
2019-03-18T01:34:13.695Z,14.70
2019-03-18T01:35:13.707Z,12.70
2019-03-18T01:36:13.673Z,10.80
2019-03-18T01:37:13.662Z,10.50
2019-03-18T01:38:13.648Z,14.00
2019-03-18T01:39:13.637Z,12.10
2019-03-18T01:40:13.657Z,11.30
2019-03-18T01:41:13.615Z,14.30
2019-03-18T01:42:16.612Z,13.20
2019-03-18T01:43:13.593Z,13.00
2019-03-18T01:44:13.589Z,13.00
2019-03-18T01:45:13.595Z,11.90
2019-03-18T01:46:13.562Z,14.00
2019-03-18T01:47:13.548Z,12.80
2019-03-18T01:48:13.543Z,13.90
2019-03-18T01:49:13.526Z,12.20
2019-03-18T01:50:13.549Z,11.50
2019-03-18T01:51:13.508Z,12.60
2019-03-18T01:52:13.494Z,12.50
2019-03-18T01:53:13.487Z,15.80
2019-03-18T01:54:13.474Z,13.70
2019-03-18T01:55:13.494Z,11.50
2019-03-18T01:56:13.460Z,11.30
2019-03-18T01:57:13.448Z,13.10
2019-03-18T01:58:13.430Z,14.00
2019-03-18T01:59:13.427Z,13.00
2019-03-18T02:00:13.445Z,15.50
2019-03-18T02:01:13.407Z,13.50
2019-03-18T02:02:13.409Z,10.90
2019-03-18T02:03:13.381Z,12.70
2019-03-18T02:04:13.371Z,12.60
2019-03-18T02:05:13.388Z,13.70
2019-03-18T02:06:13.353Z,12.60
2019-03-18T02:07:13.340Z,12.40
2019-03-18T02:08:13.328Z,13.60
2019-03-18T02:09:13.322Z,16.00
2019-03-18T02:10:13.336Z,12.60
2019-03-18T02:11:13.297Z,13.40
2019-03-18T02:12:13.296Z,11.60
2019-03-18T02:13:13.280Z,15.70
2019-03-18T02:14:13.270Z,15.00
2019-03-18T02:15:13.295Z,14.20
2019-03-18T02:16:13.247Z,16.20
2019-03-18T02:17:13.238Z,14.80
2019-03-18T02:18:13.235Z,15.80
2019-03-18T02:19:13.212Z,16.00
2019-03-18T02:20:13.232Z,16.70
2019-03-18T02:21:13.194Z,15.80
2019-03-18T02:22:13.191Z,13.80
2019-03-18T02:23:13.169Z,17.20
2019-03-18T02:24:13.161Z,17.30
2019-03-18T02:25:13.181Z,16.60
2019-03-18T02:26:13.135Z,14.30
2019-03-18T02:27:13.129Z,15.80
2019-03-18T02:28:13.119Z,14.10
2019-03-18T02:29:13.108Z,19.10
2019-03-18T02:30:13.137Z,20.50
2019-03-18T02:31:13.090Z,15.00
2019-03-18T02:32:13.086Z,16.90
2019-03-18T02:33:13.065Z,15.70
2019-03-18T02:34:13.056Z,16.30
2019-03-18T02:35:13.074Z,17.60
2019-03-18T02:36:13.037Z,17.60
2019-03-18T02:37:13.025Z,18.90
2019-03-18T02:38:13.016Z,15.00
2019-03-18T02:39:13.017Z,17.10
2019-03-18T02:40:13.025Z,16.40
2019-03-18T02:41:12.984Z,16.80
2019-03-18T02:42:12.972Z,13.70
2019-03-18T02:43:12.962Z,17.80
2019-03-18T02:44:12.964Z,19.40
2019-03-18T02:45:12.948Z,18.40
2019-03-18T02:46:12.951Z,17.50
2019-03-18T02:47:12.938Z,20.60
2019-03-18T02:48:12.907Z,15.20
2019-03-18T02:49:12.897Z,15.50
2019-03-18T02:50:12.888Z,15.10
2019-03-18T02:51:12.907Z,16.60
2019-03-18T02:52:12.871Z,15.60
2019-03-18T02:53:12.860Z,15.80
2019-03-18T02:54:12.844Z,20.20
2019-03-18T02:55:12.833Z,19.10
2019-03-18T02:56:12.853Z,17.70
2019-03-18T02:57:12.811Z,18.20
2019-03-18T02:58:12.804Z,17.00
2019-03-18T02:59:12.798Z,16.00
2019-03-18T03:00:12.783Z,16.50
2019-03-18T03:01:12.800Z,19.70
2019-03-18T03:02:12.768Z,17.20
2019-03-18T03:03:12.750Z,16.70
2019-03-18T03:04:12.747Z,16.60
2019-03-18T03:05:12.734Z,20.40
2019-03-18T03:06:12.748Z,18.90
2019-03-18T03:07:12.711Z,18.70
2019-03-18T03:08:12.697Z,17.90
2019-03-18T03:09:12.686Z,17.50
2019-03-18T03:10:12.679Z,18.50
2019-03-18T03:11:12.696Z,19.30
2019-03-18T03:12:12.682Z,21.10
2019-03-18T03:13:12.703Z,20.10
2019-03-18T03:14:12.640Z,18.00
2019-03-18T03:15:12.698Z,23.80
2019-03-18T03:16:25.686Z,25.50
2019-03-18T03:17:13.603Z,27.10
2019-03-18T03:18:12.596Z,27.30
2019-03-18T03:19:12.587Z,30.40
2019-03-18T03:20:12.580Z,35.00
2019-03-18T03:21:12.588Z,38.70
2019-03-18T03:22:12.549Z,31.50
2019-03-18T03:23:12.548Z,30.30
2019-03-18T03:24:12.526Z,32.50
2019-03-18T03:25:12.522Z,33.70
2019-03-18T03:26:12.536Z,30.30
2019-03-18T03:27:12.502Z,47.10
2019-03-18T03:28:12.487Z,35.00
2019-03-18T03:29:12.482Z,38.10
2019-03-18T03:30:12.582Z,34.10
2019-03-18T03:31:12.495Z,39.20
2019-03-18T03:32:12.445Z,34.70
2019-03-18T03:33:12.434Z,40.30
2019-03-18T03:34:14.176Z,32.40
2019-03-18T03:35:12.442Z,36.40
2019-03-18T03:36:12.439Z,34.20
2019-03-18T03:37:12.395Z,38.80
2019-03-18T03:38:12.381Z,38.30
2019-03-18T03:39:12.370Z,34.90
2019-03-18T03:40:12.382Z,36.90
2019-03-18T03:41:12.383Z,41.40
2019-03-18T03:42:12.339Z,36.80
2019-03-18T03:43:12.339Z,37.70
2019-03-18T03:44:12.330Z,39.80
2019-03-18T03:45:12.309Z,31.80
2019-03-18T03:46:12.321Z,42.40
2019-03-18T03:47:12.285Z,42.50
2019-03-18T03:48:12.277Z,42.50
2019-03-18T03:49:12.272Z,36.40
2019-03-18T03:50:12.251Z,41.30
2019-03-18T03:51:12.274Z,37.40
2019-03-18T03:52:12.351Z,43.00
2019-03-18T03:53:12.228Z,34.80
2019-03-18T03:54:12.220Z,38.60
2019-03-18T03:55:12.212Z,36.40
2019-03-18T03:56:12.217Z,36.00
2019-03-18T03:57:12.181Z,37.30
2019-03-18T03:58:12.169Z,39.70
2019-03-18T03:59:12.167Z,38.90
2019-03-18T04:00:12.178Z,36.80
2019-03-18T04:01:12.171Z,43.30
2019-03-18T04:02:12.135Z,39.70
2019-03-18T04:03:12.135Z,41.30
2019-03-18T04:04:12.110Z,44.20
2019-03-18T04:05:12.096Z,42.20
2019-03-18T04:06:12.115Z,45.30
2019-03-18T04:07:12.095Z,39.30
2019-03-18T04:08:12.070Z,41.20
2019-03-18T04:09:12.062Z,43.90
2019-03-18T04:10:12.047Z,42.80
2019-03-18T04:11:12.060Z,44.90
2019-03-18T04:12:12.036Z,45.70
2019-03-18T04:13:12.021Z,38.00
2019-03-18T04:14:12.008Z,48.70
2019-03-18T04:15:12.089Z,41.80
2019-03-18T04:16:12.008Z,41.90
2019-03-18T04:17:11.976Z,49.50
2019-03-18T04:18:11.959Z,44.90
2019-03-18T04:19:11.953Z,44.20
2019-03-18T04:20:11.948Z,41.20
2019-03-18T04:21:11.959Z,43.10
2019-03-18T04:22:11.920Z,42.70
2019-03-18T04:23:11.911Z,50.30
2019-03-18T04:24:11.896Z,52.40
2019-03-18T04:25:11.893Z,49.40
2019-03-18T04:26:11.908Z,51.10
2019-03-18T04:27:11.879Z,43.90
2019-03-18T04:28:11.857Z,49.90
2019-03-18T04:29:11.849Z,46.00
2019-03-18T04:30:11.837Z,43.10
2019-03-18T04:31:11.859Z,39.40
2019-03-18T04:32:11.879Z,52.40
2019-03-18T04:33:11.811Z,47.60
2019-03-18T04:34:11.797Z,52.00
2019-03-18T04:35:11.798Z,54.80
2019-03-18T04:36:11.796Z,43.70
2019-03-18T04:37:11.797Z,48.30
2019-03-18T04:38:11.782Z,50.10
2019-03-18T04:39:11.746Z,50.60
2019-03-18T04:40:11.750Z,41.20
2019-03-18T04:41:11.783Z,41.10
2019-03-18T04:42:11.716Z,49.60
2019-03-18T04:43:11.699Z,46.90
2019-03-18T04:44:11.725Z,50.30
2019-03-18T04:45:11.679Z,47.40
2019-03-18T04:46:11.702Z,46.00
2019-03-18T04:47:14.472Z,51.70
2019-03-18T04:48:11.648Z,49.80
2019-03-18T04:49:11.639Z,50.10
2019-03-18T04:50:11.662Z,49.60
2019-03-18T04:51:11.642Z,52.70
2019-03-18T04:52:11.607Z,64.00
2019-03-18T04:53:11.645Z,52.00
2019-03-18T04:54:11.587Z,48.80
2019-03-18T04:55:11.576Z,57.40
2019-03-18T04:56:11.587Z,51.80
2019-03-18T04:57:11.559Z,60.50
2019-03-18T04:58:11.544Z,56.80
2019-03-18T04:59:11.535Z,53.60
2019-03-18T05:00:11.541Z,56.40
2019-03-18T05:01:11.545Z,55.00
2019-03-18T05:02:11.499Z,53.50
2019-03-18T05:03:11.499Z,55.40
2019-03-18T05:04:11.479Z,54.80
2019-03-18T05:05:11.478Z,56.80
2019-03-18T05:06:11.489Z,59.60
2019-03-18T05:07:11.446Z,58.10
2019-03-18T05:08:11.443Z,59.60
2019-03-18T05:09:11.435Z,67.70
2019-03-18T05:10:11.420Z,59.90
2019-03-18T05:11:11.433Z,77.10
2019-03-18T05:12:11.403Z,63.20
2019-03-18T05:13:19.310Z,83.00
2019-03-18T05:14:11.376Z,70.30
2019-03-18T05:15:11.391Z,71.10
2019-03-18T05:16:11.383Z,70.90
2019-03-18T05:17:11.409Z,69.90
2019-03-18T05:18:11.335Z,74.40
2019-03-18T05:19:11.331Z,80.50
2019-03-18T05:20:11.313Z,76.40
2019-03-18T05:21:11.345Z,73.90
2019-03-18T05:22:11.296Z,77.50
2019-03-18T05:23:11.286Z,77.60
2019-03-18T05:24:11.279Z,84.30
2019-03-18T05:25:11.261Z,87.40
2019-03-18T05:26:11.306Z,95.40
2019-03-18T05:27:11.251Z,63.10
2019-03-18T05:28:11.235Z,69.30
2019-03-18T05:29:11.219Z,70.50
2019-03-18T05:30:11.212Z,57.90
2019-03-18T05:31:11.267Z,67.00
2019-03-18T05:32:11.227Z,65.70
2019-03-18T05:33:11.190Z,81.70
2019-03-18T05:34:11.173Z,88.90
2019-03-18T05:35:11.163Z,87.50
2019-03-18T05:36:11.148Z,107.60
2019-03-18T05:37:11.163Z,81.80
2019-03-18T05:38:11.120Z,91.90
2019-03-18T05:39:11.123Z,105.20
2019-03-18T05:40:11.118Z,87.70
2019-03-18T05:41:11.098Z,92.90
2019-03-18T05:42:11.110Z,88.60
2019-03-18T05:43:11.081Z,104.70
2019-03-18T05:44:11.070Z,87.80
2019-03-18T05:45:11.065Z,82.70
2019-03-18T05:46:11.054Z,72.60
2019-03-18T05:47:11.076Z,82.70
2019-03-18T05:48:11.018Z,84.50
2019-03-18T05:49:11.012Z,78.40
2019-03-18T05:50:11.069Z,77.10
2019-03-18T05:51:11.002Z,67.60
2019-03-18T05:52:11.020Z,64.60
2019-03-18T05:53:10.968Z,51.00
2019-03-18T05:54:10.960Z,63.00
2019-03-18T05:55:10.955Z,51.70
2019-03-18T05:56:10.939Z,64.30
2019-03-18T05:57:10.958Z,79.90
2019-03-18T05:58:10.914Z,76.70
2019-03-18T05:59:10.907Z,80.00
2019-03-18T06:00:10.899Z,81.80
2019-03-18T06:01:10.887Z,52.30
2019-03-18T06:02:10.911Z,82.40
2019-03-18T06:03:10.894Z,57.50
2019-03-18T06:04:10.855Z,68.50
2019-03-18T06:05:10.847Z,61.30
2019-03-18T06:06:10.844Z,68.50
2019-03-18T06:07:10.860Z,64.90
2019-03-18T06:08:11.803Z,71.10
2019-03-18T06:09:10.803Z,70.60
2019-03-18T06:10:10.791Z,68.40
2019-03-18T06:11:10.781Z,59.30
2019-03-18T06:12:10.802Z,76.50
2019-03-18T06:13:10.765Z,65.40
2019-03-18T06:14:10.759Z,76.40
2019-03-18T06:15:10.747Z,78.00
2019-03-18T06:16:10.743Z,84.80
2019-03-18T06:17:10.756Z,75.30
2019-03-18T06:18:10.713Z,72.80
2019-03-18T06:19:10.695Z,63.00
2019-03-18T06:20:10.702Z,75.60
2019-03-18T06:21:10.683Z,63.70
2019-03-18T06:22:10.710Z,69.70
2019-03-18T06:23:10.660Z,65.80
2019-03-18T06:24:10.651Z,84.70
2019-03-18T06:25:10.638Z,83.70
2019-03-18T06:26:10.641Z,68.60
2019-03-18T06:27:10.641Z,92.30
2019-03-18T06:28:10.605Z,80.70
2019-03-18T06:29:10.592Z,67.80
2019-03-18T06:30:10.583Z,83.70
2019-03-18T06:31:10.578Z,73.30
2019-03-18T06:32:10.596Z,81.60
2019-03-18T06:33:10.639Z,69.20
2019-03-18T06:34:10.544Z,70.50
2019-03-18T06:35:10.532Z,66.80
2019-03-18T06:36:10.520Z,68.50
2019-03-18T06:37:10.539Z,71.00
2019-03-18T06:38:10.518Z,66.30
2019-03-18T06:39:10.503Z,76.50
2019-03-18T06:40:10.484Z,66.80
2019-03-18T06:41:10.484Z,62.90
2019-03-18T06:42:10.489Z,61.40
2019-03-18T06:43:10.455Z,57.70
2019-03-18T06:44:10.454Z,60.50
2019-03-18T06:45:10.461Z,54.90
2019-03-18T06:46:10.486Z,65.90
2019-03-18T06:47:10.449Z,63.70
2019-03-18T06:48:10.395Z,59.10
2019-03-18T06:49:10.387Z,63.40
2019-03-18T06:50:10.376Z,52.90
2019-03-18T06:51:10.364Z,55.10
2019-03-18T06:52:10.396Z,70.10
2019-03-18T06:53:10.344Z,61.10
2019-03-18T06:54:10.332Z,56.70
2019-03-18T06:55:10.319Z,53.80
2019-03-18T06:56:10.317Z,61.90
2019-03-18T06:57:10.332Z,53.10
2019-03-18T06:58:10.286Z,47.50
2019-03-18T06:59:10.282Z,50.90
2019-03-18T07:00:10.267Z,62.50
2019-03-18T07:01:10.269Z,47.60
2019-03-18T07:02:10.276Z,50.40
2019-03-18T07:03:10.236Z,47.70
2019-03-18T07:04:10.222Z,38.70
2019-03-18T07:05:10.214Z,37.00
2019-03-18T07:06:10.213Z,36.10
2019-03-18T07:07:10.214Z,45.10
2019-03-18T07:08:10.183Z,44.90
2019-03-18T07:09:10.172Z,38.00
2019-03-18T07:10:10.159Z,36.10
2019-03-18T07:11:10.151Z,30.40
2019-03-18T07:12:10.172Z,35.20
2019-03-18T07:13:10.131Z,36.60
2019-03-18T07:14:10.111Z,46.00
2019-03-18T07:15:10.119Z,44.50
2019-03-18T07:16:10.099Z,41.00
2019-03-18T07:17:10.118Z,38.60
2019-03-18T07:18:18.155Z,41.60
2019-03-18T07:19:11.066Z,36.80
2019-03-18T07:20:10.051Z,30.10
2019-03-18T07:21:10.047Z,35.10
2019-03-18T07:22:10.077Z,40.50
2019-03-18T07:23:10.082Z,33.60
2019-03-18T07:24:10.011Z,28.00
2019-03-18T07:25:10.005Z,30.10
2019-03-18T07:26:09.991Z,31.50
2019-03-18T07:27:10.014Z,28.90
2019-03-18T07:28:09.974Z,31.10
2019-03-18T07:29:09.959Z,30.80
2019-03-18T07:30:09.948Z,30.70
2019-03-18T07:31:09.938Z,35.50
2019-03-18T07:32:09.953Z,30.60
2019-03-18T07:33:09.915Z,32.20
2019-03-18T07:34:09.913Z,31.90
2019-03-18T07:35:09.896Z,34.10
2019-03-18T07:36:09.889Z,36.40
2019-03-18T07:37:09.899Z,31.90
2019-03-18T07:38:09.869Z,34.50
2019-03-18T07:39:09.859Z,32.40
2019-03-18T07:40:11.215Z,30.60
2019-03-18T07:41:09.837Z,29.10
2019-03-18T07:42:09.848Z,33.40
2019-03-18T07:43:09.818Z,34.10
2019-03-18T07:44:09.801Z,33.00
2019-03-18T07:45:09.788Z,32.60
2019-03-18T07:46:09.780Z,31.20
2019-03-18T07:47:09.868Z,31.90
2019-03-18T07:48:12.453Z,26.80
2019-03-18T07:49:09.747Z,29.00
2019-03-18T07:50:09.738Z,29.50
2019-03-18T07:51:09.723Z,29.60
2019-03-18T07:52:09.747Z,33.00
2019-03-18T07:53:09.704Z,30.10
2019-03-18T07:54:09.701Z,31.50
2019-03-18T07:55:09.693Z,26.40
2019-03-18T07:56:09.677Z,26.90
2019-03-18T07:57:09.707Z,35.00
2019-03-18T07:58:09.653Z,29.20
2019-03-18T07:59:09.640Z,28.60
2019-03-18T08:00:09.631Z,29.70
2019-03-18T08:01:09.625Z,30.40
2019-03-18T08:02:09.613Z,34.20
2019-03-18T08:03:09.636Z,26.50
2019-03-18T08:04:09.590Z,30.90
2019-03-18T08:05:09.577Z,31.40
2019-03-18T08:06:09.568Z,24.70
2019-03-18T08:07:09.560Z,30.80
2019-03-18T08:08:09.567Z,32.50
2019-03-18T08:09:09.539Z,32.70
2019-03-18T08:10:09.529Z,39.20
2019-03-18T08:11:09.513Z,33.80
2019-03-18T08:12:09.505Z,28.10
2019-03-18T08:13:09.514Z,37.20
2019-03-18T08:14:09.480Z,32.70
2019-03-18T08:15:09.476Z,26.20
2019-03-18T08:16:09.462Z,24.70
2019-03-18T08:17:09.452Z,29.10
2019-03-18T08:18:09.469Z,25.20
2019-03-18T08:19:09.428Z,32.50
2019-03-18T08:20:09.419Z,27.30
2019-03-18T08:21:09.411Z,27.30
2019-03-18T08:22:09.397Z,29.00
2019-03-18T08:23:09.419Z,30.40
2019-03-18T08:24:09.378Z,26.90
2019-03-18T08:25:09.364Z,29.00
2019-03-18T08:26:09.352Z,31.10
2019-03-18T08:27:09.346Z,25.50
2019-03-18T08:28:09.355Z,24.60
2019-03-18T08:29:09.318Z,31.40
2019-03-18T08:30:09.314Z,22.40
2019-03-18T08:31:09.300Z,34.50
2019-03-18T08:32:11.649Z,23.90
2019-03-18T08:33:09.302Z,30.10
2019-03-18T08:34:09.267Z,27.40
2019-03-18T08:35:09.256Z,25.90
2019-03-18T08:36:09.254Z,24.50
2019-03-18T08:37:09.264Z,25.20
2019-03-18T08:38:09.247Z,25.80
2019-03-18T08:39:09.221Z,26.30
2019-03-18T08:40:09.203Z,28.50
2019-03-18T08:41:09.197Z,24.00
2019-03-18T08:42:09.180Z,26.40
2019-03-18T08:43:09.225Z,29.60
2019-03-18T08:44:09.161Z,27.20
2019-03-18T08:45:09.160Z,26.90
2019-03-18T08:46:09.140Z,28.00
2019-03-18T08:47:09.132Z,23.90
2019-03-18T08:48:09.152Z,29.10
2019-03-18T08:49:09.106Z,30.30
2019-03-18T08:50:11.932Z,28.10
2019-03-18T08:51:09.086Z,23.60
2019-03-18T08:52:09.072Z,31.30
2019-03-18T08:53:09.092Z,23.70
2019-03-18T08:54:09.053Z,30.60
2019-03-18T08:55:09.042Z,26.60
2019-03-18T08:56:09.035Z,29.10
2019-03-18T08:57:09.020Z,23.20
2019-03-18T08:58:09.036Z,23.90
2019-03-18T08:59:09.004Z,23.20
2019-03-18T09:00:08.995Z,26.40
2019-03-18T09:01:08.982Z,23.10
2019-03-18T09:02:08.981Z,22.50
2019-03-18T09:03:08.991Z,24.70
2019-03-18T09:04:08.956Z,26.20
2019-03-18T09:05:08.953Z,21.40
2019-03-18T09:06:08.931Z,25.60
2019-03-18T09:07:08.918Z,21.30
2019-03-18T09:08:08.955Z,22.70
2019-03-18T09:09:08.921Z,22.60
2019-03-18T09:10:08.907Z,24.70
2019-03-18T09:11:08.881Z,26.00
2019-03-18T09:12:08.867Z,24.70
2019-03-18T09:13:08.888Z,25.30
2019-03-18T09:14:08.848Z,23.20
2019-03-18T09:15:08.837Z,22.40
2019-03-18T09:16:08.819Z,20.70
2019-03-18T09:17:08.809Z,20.80
2019-03-18T09:18:08.824Z,27.50
2019-03-18T09:19:09.329Z,25.10
2019-03-18T09:20:08.775Z,24.60
2019-03-18T09:21:08.769Z,25.70
2019-03-18T09:22:08.754Z,22.50
2019-03-18T09:23:08.780Z,20.70
2019-03-18T09:24:08.789Z,24.10
2019-03-18T09:25:08.738Z,23.20
2019-03-18T09:26:08.715Z,22.00
2019-03-18T09:27:08.709Z,20.70
2019-03-18T09:28:08.889Z,22.20
2019-03-18T09:29:08.679Z,22.50
2019-03-18T09:30:08.677Z,21.30
2019-03-18T09:31:08.687Z,20.50
2019-03-18T09:32:08.654Z,24.70
2019-03-18T09:33:08.670Z,25.30
2019-03-18T09:34:08.628Z,20.80
2019-03-18T09:35:08.617Z,20.70
2019-03-18T09:36:08.607Z,24.90
2019-03-18T09:37:08.603Z,21.10
2019-03-18T09:38:08.617Z,21.90
2019-03-18T09:39:08.578Z,22.00
2019-03-18T09:40:08.565Z,27.20
2019-03-18T09:41:08.556Z,19.60
2019-03-18T09:42:08.542Z,19.90
2019-03-18T09:43:08.561Z,22.30
2019-03-18T09:44:08.521Z,16.90
2019-03-18T09:45:08.513Z,25.70
2019-03-18T09:46:08.502Z,20.00
2019-03-18T09:47:08.487Z,23.00
2019-03-18T09:48:08.508Z,19.50
2019-03-18T09:49:20.653Z,21.90
2019-03-18T09:50:09.461Z,20.70
2019-03-18T09:51:09.650Z,21.40
2019-03-18T09:52:08.436Z,22.80
2019-03-18T09:53:08.456Z,20.80
2019-03-18T09:54:08.421Z,20.70
2019-03-18T09:55:08.403Z,23.80
2019-03-18T09:56:08.399Z,21.80
2019-03-18T09:57:08.385Z,21.10
2019-03-18T09:58:08.404Z,21.50
2019-03-18T09:59:08.368Z,23.90
2019-03-18T10:00:08.410Z,20.50
2019-03-18T10:01:08.343Z,20.70
2019-03-18T10:02:08.335Z,17.60
2019-03-18T10:03:08.348Z,16.80
2019-03-18T10:04:08.312Z,22.00
2019-03-18T10:05:08.299Z,19.60
2019-03-18T10:06:08.290Z,18.60
2019-03-18T10:07:08.344Z,24.90
2019-03-18T10:08:08.400Z,25.80
2019-03-18T10:09:08.262Z,25.00
2019-03-18T10:10:08.252Z,24.10
2019-03-18T10:11:08.240Z,23.30
2019-03-18T10:12:08.225Z,20.00
2019-03-18T10:13:08.253Z,17.90
2019-03-18T10:14:08.204Z,17.50
2019-03-18T10:15:08.196Z,21.50
2019-03-18T10:16:08.180Z,16.60
2019-03-18T10:17:09.800Z,23.80
2019-03-18T10:18:08.184Z,20.80
2019-03-18T10:19:08.149Z,19.10
2019-03-18T10:20:08.135Z,20.40
2019-03-18T10:21:08.132Z,18.90
2019-03-18T10:22:08.122Z,19.30
2019-03-18T10:23:08.136Z,18.00
2019-03-18T10:24:08.094Z,21.30
2019-03-18T10:25:08.095Z,18.90
2019-03-18T10:26:08.076Z,20.00
2019-03-18T10:27:08.071Z,21.00
2019-03-18T10:28:08.083Z,21.30
2019-03-18T10:29:08.043Z,18.80
2019-03-18T10:30:08.031Z,20.00
2019-03-18T10:31:08.027Z,19.60
2019-03-18T10:32:08.011Z,17.50
2019-03-18T10:33:08.037Z,19.60
2019-03-18T10:34:08.001Z,21.20
2019-03-18T10:35:07.981Z,20.30
2019-03-18T10:36:07.972Z,22.00
2019-03-18T10:37:07.963Z,17.70
2019-03-18T10:38:07.947Z,16.60
2019-03-18T10:39:07.964Z,21.30
2019-03-18T10:40:07.938Z,16.60
2019-03-18T10:41:07.916Z,17.70
2019-03-18T10:42:07.905Z,20.10
2019-03-18T10:43:07.902Z,18.90
2019-03-18T10:44:07.910Z,21.40
2019-03-18T10:45:07.884Z,21.10
2019-03-18T10:46:07.872Z,14.60
2019-03-18T10:47:07.851Z,16.50
2019-03-18T10:48:07.842Z,15.90
2019-03-18T10:49:07.859Z,18.30
2019-03-18T10:50:07.826Z,17.10
2019-03-18T10:51:07.817Z,15.00
2019-03-18T10:52:07.804Z,17.00
2019-03-18T10:53:07.791Z,15.40
2019-03-18T10:54:07.817Z,16.90
2019-03-18T10:55:07.771Z,14.90
2019-03-18T10:56:08.353Z,17.20
2019-03-18T10:57:07.756Z,17.10
2019-03-18T10:58:07.744Z,15.50
2019-03-18T10:59:07.758Z,18.80
2019-03-18T11:00:07.719Z,17.10
2019-03-18T11:01:07.714Z,16.60
2019-03-18T11:02:07.698Z,15.40
2019-03-18T11:03:07.692Z,17.40
2019-03-18T11:04:07.704Z,14.90
2019-03-18T11:05:08.306Z,17.10
2019-03-18T11:06:07.658Z,17.90
2019-03-18T11:07:07.647Z,12.90
2019-03-18T11:08:07.644Z,21.40
2019-03-18T11:09:07.653Z,17.50
2019-03-18T11:10:07.613Z,18.80
2019-03-18T11:11:07.601Z,21.10
2019-03-18T11:12:07.592Z,15.10
2019-03-18T11:13:18.392Z,15.80
2019-03-18T11:14:07.595Z,19.70
2019-03-18T11:15:07.556Z,17.30
2019-03-18T11:16:07.548Z,18.10
2019-03-18T11:17:07.538Z,15.60
2019-03-18T11:18:07.524Z,14.50
2019-03-18T11:19:07.548Z,13.20
2019-03-18T11:20:07.504Z,19.10
2019-03-18T11:21:07.497Z,15.80
2019-03-18T11:22:07.498Z,14.90
2019-03-18T11:23:07.473Z,15.20
2019-03-18T11:24:07.494Z,18.20
2019-03-18T11:25:07.459Z,12.80
2019-03-18T11:26:07.442Z,13.70
2019-03-18T11:27:07.434Z,13.20
2019-03-18T11:28:07.425Z,13.10
2019-03-18T11:29:07.436Z,14.60
2019-03-18T11:30:07.396Z,13.50
2019-03-18T11:31:07.387Z,13.70
2019-03-18T11:32:07.376Z,15.10
2019-03-18T11:33:07.372Z,15.00
2019-03-18T11:34:07.382Z,14.70
2019-03-18T11:35:07.346Z,14.60
2019-03-18T11:36:07.336Z,13.20
2019-03-18T11:37:07.321Z,13.70
2019-03-18T11:38:07.312Z,11.70
2019-03-18T11:39:07.326Z,13.30
2019-03-18T11:40:07.287Z,11.90
2019-03-18T11:41:07.285Z,16.00
2019-03-18T11:42:07.271Z,11.70
2019-03-18T11:43:07.256Z,13.00
2019-03-18T11:44:07.279Z,13.20
2019-03-18T11:45:08.277Z,12.00
2019-03-18T11:46:07.229Z,14.10
2019-03-18T11:47:07.214Z,15.50
2019-03-18T11:48:07.203Z,13.00
2019-03-18T11:49:07.234Z,13.10
2019-03-18T11:50:11.447Z,13.10
2019-03-18T11:51:07.177Z,15.40
2019-03-18T11:52:07.165Z,13.00
2019-03-18T11:53:14.123Z,13.10
2019-03-18T11:54:08.172Z,16.80
2019-03-18T11:55:07.133Z,17.70
2019-03-18T11:56:07.123Z,15.40
2019-03-18T11:57:07.111Z,11.90
2019-03-18T11:58:07.099Z,11.70
2019-03-18T11:59:07.111Z,16.30
2019-03-18T12:00:07.079Z,18.40
2019-03-18T12:01:07.072Z,13.30
2019-03-18T12:02:07.059Z,14.70
2019-03-18T12:03:07.051Z,15.50
2019-03-18T12:04:07.059Z,15.40
2019-03-18T12:05:07.023Z,16.50
2019-03-18T12:06:07.026Z,14.90
2019-03-18T12:07:07.009Z,18.60
2019-03-18T12:08:06.999Z,15.20
2019-03-18T12:09:07.011Z,17.60
2019-03-18T12:10:06.973Z,13.80
2019-03-18T12:11:06.959Z,15.20
2019-03-18T12:12:06.952Z,15.20
2019-03-18T12:13:06.940Z,17.30
2019-03-18T12:14:06.959Z,15.70
2019-03-18T12:15:06.917Z,13.70
2019-03-18T12:16:06.903Z,12.70
2019-03-18T12:17:06.895Z,14.60
2019-03-18T12:18:06.886Z,15.50
2019-03-18T12:19:06.905Z,16.40
2019-03-18T12:20:06.872Z,18.20
2019-03-18T12:21:06.885Z,13.90
2019-03-18T12:22:06.845Z,14.50
2019-03-18T12:23:06.835Z,14.40
2019-03-18T12:24:06.856Z,14.70
2019-03-18T12:25:06.812Z,15.00
2019-03-18T12:26:06.821Z,16.40
2019-03-18T12:27:06.794Z,14.00
2019-03-18T12:28:06.779Z,15.90
2019-03-18T12:29:06.799Z,17.30
2019-03-18T12:30:06.773Z,14.70
2019-03-18T12:31:06.747Z,15.30
2019-03-18T12:32:06.742Z,19.60
2019-03-18T12:33:06.732Z,16.90
2019-03-18T12:34:06.752Z,15.30
2019-03-18T12:35:06.711Z,15.10
2019-03-18T12:36:06.741Z,17.30
2019-03-18T12:37:06.728Z,15.00
2019-03-18T12:38:06.683Z,13.30
2019-03-18T12:39:06.696Z,13.90
2019-03-18T12:40:06.656Z,13.80
2019-03-18T12:41:06.651Z,15.10
2019-03-18T12:42:06.635Z,19.80
2019-03-18T12:43:06.625Z,14.90
2019-03-18T12:44:06.639Z,17.20
2019-03-18T12:45:08.773Z,15.30
2019-03-18T12:46:06.595Z,16.00
2019-03-18T12:47:06.588Z,15.30
2019-03-18T12:48:06.583Z,14.80
2019-03-18T12:49:06.613Z,13.30
2019-03-18T12:50:06.562Z,16.10
2019-03-18T12:51:06.543Z,14.70
2019-03-18T12:52:06.534Z,13.70